Time;durP1;ratioP1;P1;durP2;ratioP2;P2;SDS_P1;SDS_P2;PMS_P1;PMS_P2;Temp;Humidity;BMP_temperature;BMP_pressure;BME280_temperature;BME280_humidity;BME280_pressure;Samples;Min_cycle;Max_cycle;Signal;HPM_P1;HPM_P2
2021/09/07 00:02:14;;;;;;;12.83;8.17;;;;;;;;;;5073415;28;20942;-59
2021/09/07 00:04:41;;;;;;;10.47;7.10;;;;;;;;;;5073110;28;20931;-59
2021/09/07 00:07:09;;;;;;;10.83;8.40;;;;;;;;;;5073243;28;20564;-59
2021/09/07 00:09:38;;;;;;;10.20;7.20;;;;;;;;;;5073120;28;20458;-59
2021/09/07 00:12:05;;;;;;;10.27;9.17;;;;;;;;;;5073195;28;20443;-59
2021/09/07 00:14:33;;;;;;;12.87;7.90;;;;;;;;;;5072768;28;20471;-59
2021/09/07 00:17:00;;;;;;;11.07;8.10;;;;;;;;;;5073051;28;20451;-59
2021/09/07 00:19:27;;;;;;;9.57;8.00;;;;;;;;;;5072877;28;20471;-59
2021/09/07 00:21:54;;;;;;;10.13;8.30;;;;;;;;;;5073055;28;20509;-59
2021/09/07 00:24:22;;;;;;;12.50;8.60;;;;;;;;;;5075331;28;20497;-60
2021/09/07 00:26:51;;;;;;;9.23;7.30;;;;;;;;;;5076941;28;20443;-59
2021/09/07 00:29:19;;;;;;;8.87;7.67;;;;;;;;;;5077200;28;20463;-59
2021/09/07 00:31:46;;;;;;;8.70;7.37;;;;;;;;;;5076667;28;20455;-59
2021/09/07 00:34:13;;;;;;;9.30;7.83;;;;;;;;;;5076885;28;20470;-59
2021/09/07 00:36:40;;;;;;;9.27;7.20;;;;;;;;;;5076988;28;20512;-59
2021/09/07 00:39:08;;;;;;;10.37;8.03;;;;;;;;;;5076748;28;20484;-59
2021/09/07 00:41:35;;;;;;;7.80;7.00;;;;;;;;;;5076935;28;20446;-59
2021/09/07 00:44:12;;;;;;;9.77;8.73;;;;;;;;;;5076799;28;20508;-59
2021/09/07 00:46:39;;;;;;;9.60;8.60;;;;;;;;;;5077305;28;20430;-59
2021/09/07 00:49:06;;;;;;;9.23;7.60;;;;;;;;;;5076689;28;20533;-59
2021/09/07 00:51:34;;;;;;;13.10;8.17;;;;;;;;;;5076396;28;20934;-59
2021/09/07 00:54:02;;;;;;;9.70;8.70;;;;;;;;;;5076623;28;20825;-58
2021/09/07 00:56:30;;;;;;;10.50;8.63;;;;;;;;;;5076589;28;20504;-59
2021/09/07 00:58:58;;;;;;;9.33;7.60;;;;;;;;;;5076586;28;20889;-59
2021/09/07 01:01:26;;;;;;;10.77;8.87;;;;;;;;;;5076243;28;20996;-59
2021/09/07 01:03:53;;;;;;;8.83;7.93;;;;;;;;;;5076454;28;20472;-58
2021/09/07 01:06:21;;;;;;;10.67;7.97;;;;;;;;;;5076212;28;20860;-59
2021/09/07 01:08:48;;;;;;;9.30;8.40;;;;;;;;;;5076409;28;20512;-59
2021/09/07 01:11:18;;;;;;;9.10;8.10;;;;;;;;;;5076448;28;20504;-58
2021/09/07 01:13:45;;;;;;;12.40;7.93;;;;;;;;;;5076255;28;20474;-58
2021/09/07 01:16:13;;;;;;;11.57;7.83;;;;;;;;;;5076073;28;20449;-58
2021/09/07 01:18:42;;;;;;;8.67;7.77;;;;;;;;;;5075680;28;20909;-59
2021/09/07 01:21:11;;;;;;;12.80;8.27;;;;;;;;;;5075886;28;20443;-59
2021/09/07 01:23:40;;;;;;;9.13;8.17;;;;;;;;;;5076048;28;20501;-60
2021/09/07 01:26:09;;;;;;;10.07;8.07;;;;;;;;;;5075713;28;20447;-60
2021/09/07 01:28:37;;;;;;;9.70;8.43;;;;;;;;;;5075956;28;20459;-60
2021/09/07 01:31:05;;;;;;;9.70;8.13;;;;;;;;;;5075683;28;20443;-60
2021/09/07 01:33:32;;;;;;;9.23;8.13;;;;;;;;;;5075876;28;20475;-59
2021/09/07 01:35:59;;;;;;;10.40;8.07;;;;;;;;;;5075142;28;20439;-59
2021/09/07 01:38:27;;;;;;;10.63;7.60;;;;;;;;;;5075770;28;20471;-59
2021/09/07 01:40:54;;;;;;;9.23;7.47;;;;;;;;;;5075822;28;20439;-59
2021/09/07 01:43:23;;;;;;;8.43;7.63;;;;;;;;;;5075445;28;20478;-59
2021/09/07 01:45:52;;;;;;;9.93;7.50;;;;;;;;;;5075646;28;20496;-58
2021/09/07 01:48:20;;;;;;;9.97;7.93;;;;;;;;;;5075584;28;20559;-59
2021/09/07 01:50:47;;;;;;;12.80;9.17;;;;;;;;;;5075672;28;20443;-59
2021/09/07 01:53:15;;;;;;;8.73;7.63;;;;;;;;;;5075184;28;20939;-58
2021/09/07 01:55:42;;;;;;;9.27;7.97;;;;;;;;;;5075554;28;20785;-60
2021/09/07 01:58:09;;;;;;;10.53;7.47;;;;;;;;;;5075114;28;20924;-59
2021/09/07 02:00:38;;;;;;;8.80;7.90;;;;;;;;;;5075360;28;20496;-59
2021/09/07 02:03:05;;;;;;;8.40;7.50;;;;;;;;;;5075351;28;20513;-60
2021/09/07 02:05:32;;;;;;;10.47;8.43;;;;;;;;;;5075771;28;20508;-58
2021/09/07 02:08:00;;;;;;;10.47;8.73;;;;;;;;;;5075516;28;20509;-59
2021/09/07 02:10:27;;;;;;;11.40;9.50;;;;;;;;;;5075183;28;20439;-60
2021/09/07 02:12:54;;;;;;;9.20;8.30;;;;;;;;;;5075277;28;20502;-59
2021/09/07 02:15:21;;;;;;;10.83;8.70;;;;;;;;;;5075637;28;20486;-59
2021/09/07 02:17:59;;;;;;;11.63;9.30;;;;;;;;;;5075598;28;20898;-57
2021/09/07 02:20:27;;;;;;;13.43;9.70;;;;;;;;;;5075051;28;20469;-57
2021/09/07 02:22:54;;;;;;;10.30;8.50;;;;;;;;;;5075194;28;20508;-57
2021/09/07 02:25:21;;;;;;;14.23;10.73;;;;;;;;;;5074942;28;20497;-57
2021/09/07 02:27:48;;;;;;;15.03;11.00;;;;;;;;;;5074545;28;20975;-57
2021/09/07 02:30:16;;;;;;;13.17;11.10;;;;;;;;;;5074880;28;20447;-57
2021/09/07 02:32:43;;;;;;;16.03;12.40;;;;;;;;;;5074889;28;20447;-57
2021/09/07 02:35:12;;;;;;;12.00;9.97;;;;;;;;;;5074385;28;20563;-57
2021/09/07 02:37:41;;;;;;;12.23;9.43;;;;;;;;;;5074310;28;20463;-58
2021/09/07 02:40:08;;;;;;;10.77;9.63;;;;;;;;;;5074306;28;20447;-58
2021/09/07 02:42:36;;;;;;;11.70;9.33;;;;;;;;;;5074597;28;20500;-58
2021/09/07 02:45:03;;;;;;;14.50;9.73;;;;;;;;;;5074541;28;20774;-58
2021/09/07 02:47:31;;;;;;;11.13;9.00;;;;;;;;;;5073456;28;20517;-58
2021/09/07 02:49:58;;;;;;;11.20;9.27;;;;;;;;;;5074227;28;20504;-58
2021/09/07 02:52:27;;;;;;;11.77;8.70;;;;;;;;;;5074184;28;20992;-58
2021/09/07 02:54:54;;;;;;;10.70;8.50;;;;;;;;;;5074396;28;20486;-58
2021/09/07 02:57:21;;;;;;;11.33;9.63;;;;;;;;;;5074246;28;20505;-58
2021/09/07 02:59:48;;;;;;;11.70;9.13;;;;;;;;;;5074530;28;20859;-58
2021/09/07 03:02:15;;;;;;;11.00;7.97;;;;;;;;;;5074263;28;20439;-58
2021/09/07 03:04:43;;;;;;;10.43;8.80;;;;;;;;;;5074371;28;20867;-58
2021/09/07 03:07:10;;;;;;;9.80;8.77;;;;;;;;;;5074182;28;20439;-58
2021/09/07 03:09:39;;;;;;;10.37;9.13;;;;;;;;;;5074109;28;20467;-58
2021/09/07 03:12:06;;;;;;;17.10;8.90;;;;;;;;;;5074291;28;20519;-58
2021/09/07 03:14:33;;;;;;;12.53;9.20;;;;;;;;;;5073986;28;20478;-58
2021/09/07 03:17:01;;;;;;;11.70;9.17;;;;;;;;;;5073893;28;20451;-58
2021/09/07 03:19:28;;;;;;;11.20;8.40;;;;;;;;;;5073878;28;20536;-58
2021/09/07 03:21:56;;;;;;;10.10;8.80;;;;;;;;;;5073453;28;20907;-58
2021/09/07 03:24:23;;;;;;;8.90;7.83;;;;;;;;;;5073496;28;20448;-58
2021/09/07 03:26:52;;;;;;;10.00;9.00;;;;;;;;;;5073740;28;20541;-58
2021/09/07 03:29:19;;;;;;;10.37;8.87;;;;;;;;;;5073769;28;20467;-58
2021/09/07 03:31:47;;;;;;;10.80;9.30;;;;;;;;;;5073365;28;20496;-58
2021/09/07 03:34:14;;;;;;;11.90;7.73;;;;;;;;;;5073585;28;20836;-58
2021/09/07 03:36:41;;;;;;;10.93;9.03;;;;;;;;;;5073619;28;20514;-58
2021/09/07 03:39:09;;;;;;;10.93;8.40;;;;;;;;;;5073209;28;20493;-58
2021/09/07 03:41:36;;;;;;;11.40;8.50;;;;;;;;;;5073776;28;20493;-58
2021/09/07 03:44:05;;;;;;;10.40;8.70;;;;;;;;;;5073795;28;20443;-58
2021/09/07 03:46:32;;;;;;;11.37;9.50;;;;;;;;;;5073949;28;20451;-58
2021/09/07 03:49:00;;;;;;;12.60;9.90;;;;;;;;;;5073335;28;20540;-58
2021/09/07 03:51:28;;;;;;;10.27;8.67;;;;;;;;;;5073370;28;20435;-58
2021/09/07 03:53:55;;;;;;;12.37;9.40;;;;;;;;;;5073007;28;20528;-58
2021/09/07 03:56:22;;;;;;;11.37;9.80;;;;;;;;;;5073280;28;20501;-58
2021/09/07 03:58:49;;;;;;;11.67;8.30;;;;;;;;;;5072880;28;20468;-58
2021/09/07 04:01:18;;;;;;;10.20;8.07;;;;;;;;;;5073078;28;20989;-58
2021/09/07 04:03:45;;;;;;;12.60;8.03;;;;;;;;;;5073261;28;20453;-58
2021/09/07 04:08:33;;;;;;;10.17;8.13;;;;;;;;;;5111513;27;20544;-57
2021/09/07 04:11:00;;;;;;;10.20;9.07;;;;;;;;;;5111379;28;20449;-57
2021/09/07 04:13:27;;;;;;;8.90;7.77;;;;;;;;;;5110914;28;20450;-57
2021/09/07 04:15:54;;;;;;;13.30;8.80;;;;;;;;;;5111018;28;20503;-57
2021/09/07 04:18:22;;;;;;;10.97;8.70;;;;;;;;;;5111104;28;20864;-57
2021/09/07 04:20:49;;;;;;;10.77;8.47;;;;;;;;;;5110809;28;20506;-58
2021/09/07 04:23:16;;;;;;;10.20;8.90;;;;;;;;;;5111137;28;20446;-58
2021/09/07 04:25:45;;;;;;;13.07;10.40;;;;;;;;;;5110981;28;20502;-58
2021/09/07 04:28:12;;;;;;;10.07;8.60;;;;;;;;;;5111185;28;20486;-59
2021/09/07 04:30:39;;;;;;;13.10;8.80;;;;;;;;;;5110782;28;20445;-58
2021/09/07 04:33:07;;;;;;;10.70;9.47;;;;;;;;;;5111044;28;20441;-58
2021/09/07 04:35:34;;;;;;;12.03;9.60;;;;;;;;;;5111092;28;20450;-59
2021/09/07 04:38:01;;;;;;;13.57;9.30;;;;;;;;;;5111091;28;20879;-58
2021/09/07 04:40:28;;;;;;;14.30;9.90;;;;;;;;;;5110919;28;20925;-59
2021/09/07 04:42:57;;;;;;;10.63;9.10;;;;;;;;;;5110917;28;20520;-58
2021/09/07 04:45:24;;;;;;;12.20;10.03;;;;;;;;;;5110455;28;20790;-61
2021/09/07 04:47:51;;;;;;;11.70;8.83;;;;;;;;;;5110685;28;20489;-59
2021/09/07 04:50:19;;;;;;;10.77;7.70;;;;;;;;;;5110630;28;20449;-58
2021/09/07 04:52:46;;;;;;;8.40;7.57;;;;;;;;;;5110559;28;20854;-59
2021/09/07 04:55:13;;;;;;;9.50;8.20;;;;;;;;;;5110274;28;20494;-59
2021/09/07 04:57:41;;;;;;;9.17;7.93;;;;;;;;;;5110488;28;20499;-59
2021/09/07 05:00:10;;;;;;;9.97;8.47;;;;;;;;;;5110723;28;20540;-59
2021/09/07 05:02:38;;;;;;;9.33;7.90;;;;;;;;;;5110218;28;20841;-59
2021/09/07 05:05:06;;;;;;;11.80;9.23;;;;;;;;;;5110461;28;20456;-59
2021/09/07 05:07:33;;;;;;;10.27;8.67;;;;;;;;;;5110138;28;20477;-59
2021/09/07 05:10:01;;;;;;;9.93;8.87;;;;;;;;;;5111520;28;20498;-59
2021/09/07 05:12:28;;;;;;;13.60;9.10;;;;;;;;;;5110227;28;20445;-59
2021/09/07 05:14:56;;;;;;;10.07;9.03;;;;;;;;;;5110110;28;20445;-59
2021/09/07 05:17:24;;;;;;;11.13;9.00;;;;;;;;;;5109939;28;20491;-61
2021/09/07 05:19:52;;;;;;;11.80;9.50;;;;;;;;;;5096208;28;20496;-60
2021/09/07 05:22:19;;;;;;;16.90;12.30;;;;;;;;;;5095863;28;20953;-59
2021/09/07 05:24:46;;;;;;;20.00;13.30;;;;;;;;;;5095870;28;20442;-59
2021/09/07 05:27:13;;;;;;;14.80;12.07;;;;;;;;;;5096868;28;20482;-61
2021/09/07 05:29:41;;;;;;;14.47;12.63;;;;;;;;;;5095729;28;20535;-60
2021/09/07 05:32:10;;;;;;;15.13;13.60;;;;;;;;;;5095738;28;20934;-60
2021/09/07 05:34:39;;;;;;;19.53;16.37;;;;;;;;;;5095983;28;20446;-60
2021/09/07 05:37:06;;;;;;;18.33;15.90;;;;;;;;;;5095831;28;20595;-62
2021/09/07 05:39:34;;;;;;;20.10;17.40;;;;;;;;;;5095812;28;20525;-62
2021/09/07 05:42:01;;;;;;;17.23;15.20;;;;;;;;;;5095475;28;20507;-56
2021/09/07 05:44:28;;;;;;;24.60;19.10;;;;;;;;;;5095532;28;20442;-57
2021/09/07 05:46:56;;;;;;;24.43;19.77;;;;;;;;;;5095456;28;20527;-56
2021/09/07 05:49:23;;;;;;;21.53;19.00;;;;;;;;;;5095666;28;20467;-58
2021/09/07 05:51:51;;;;;;;22.97;18.10;;;;;;;;;;5095648;28;20527;-56
2021/09/07 05:54:19;;;;;;;23.67;18.97;;;;;;;;;;5095523;28;20506;-57
2021/09/07 05:56:46;;;;;;;19.00;16.60;;;;;;;;;;5095084;28;20511;-57
2021/09/07 05:59:13;;;;;;;22.40;17.87;;;;;;;;;;5095435;28;20462;-57
2021/09/07 06:01:41;;;;;;;23.03;17.50;;;;;;;;;;5095495;28;20470;-55
2021/09/07 06:04:08;;;;;;;22.00;17.37;;;;;;;;;;5095322;28;20441;-56
2021/09/07 06:06:35;;;;;;;24.70;20.00;;;;;;;;;;5095312;28;20531;-56
2021/09/07 06:09:04;;;;;;;19.13;16.73;;;;;;;;;;5094821;28;20482;-55
2021/09/07 06:11:31;;;;;;;22.90;18.20;;;;;;;;;;5095717;28;20448;-56
2021/09/07 06:13:58;;;;;;;22.20;18.40;;;;;;;;;;5095201;28;20598;-55
2021/09/07 06:16:25;;;;;;;25.20;20.10;;;;;;;;;;5095137;28;20458;-56
2021/09/07 06:18:53;;;;;;;27.40;19.77;;;;;;;;;;5094976;28;20463;-56
2021/09/07 06:21:20;;;;;;;24.90;20.37;;;;;;;;;;5095016;28;20515;-56
2021/09/07 06:23:47;;;;;;;25.37;19.70;;;;;;;;;;5094509;28;20461;-57
2021/09/07 06:26:16;;;;;;;23.43;19.57;;;;;;;;;;5094868;28;20438;-57
2021/09/07 06:28:45;;;;;;;27.27;19.63;;;;;;;;;;5095192;28;20474;-56
2021/09/07 06:31:12;;;;;;;23.83;19.07;;;;;;;;;;5093642;28;20468;-57
2021/09/07 06:33:39;;;;;;;23.33;19.80;;;;;;;;;;5094710;28;20438;-56
2021/09/07 06:36:07;;;;;;;26.13;20.53;;;;;;;;;;5094710;28;20454;-56
2021/09/07 06:38:34;;;;;;;29.37;21.37;;;;;;;;;;5094572;28;21029;-58
2021/09/07 06:41:03;;;;;;;30.80;22.83;;;;;;;;;;5094304;28;20957;-57
2021/09/07 06:43:32;;;;;;;31.30;23.33;;;;;;;;;;5094576;28;20453;-58
2021/09/07 06:45:59;;;;;;;49.80;24.70;;;;;;;;;;5094318;28;20503;-58
2021/09/07 06:48:26;;;;;;;32.87;23.67;;;;;;;;;;5094676;28;20481;-57
2021/09/07 06:50:53;;;;;;;33.40;24.27;;;;;;;;;;5094493;28;20855;-58
2021/09/07 06:53:21;;;;;;;51.73;24.83;;;;;;;;;;5094643;28;20811;-58
2021/09/07 06:55:48;;;;;;;36.77;22.93;;;;;;;;;;5094793;28;20443;-57
2021/09/07 06:58:16;;;;;;;28.97;23.43;;;;;;;;;;5094488;28;20489;-57
2021/09/07 07:00:44;;;;;;;45.00;23.53;;;;;;;;;;5097178;28;20510;-58
2021/09/07 07:03:11;;;;;;;31.90;20.70;;;;;;;;;;5097823;28;20449;-57
2021/09/07 07:05:39;;;;;;;30.77;21.93;;;;;;;;;;5094388;28;20446;-58
2021/09/07 07:08:06;;;;;;;28.83;22.07;;;;;;;;;;5093325;28;20919;-58
2021/09/07 07:10:33;;;;;;;27.43;22.10;;;;;;;;;;5094035;28;20461;-57
2021/09/07 07:13:00;;;;;;;29.53;23.37;;;;;;;;;;5094198;28;20492;-57
2021/09/07 07:15:28;;;;;;;27.27;21.90;;;;;;;;;;5094017;28;20442;-58
2021/09/07 07:17:57;;;;;;;33.83;22.80;;;;;;;;;;5093751;28;20466;-58
2021/09/07 07:20:24;;;;;;;30.53;23.70;;;;;;;;;;5093984;28;20784;-57
2021/09/07 07:22:51;;;;;;;31.43;21.60;;;;;;;;;;5094011;28;20438;-58
2021/09/07 07:25:18;;;;;;;29.67;22.90;;;;;;;;;;5093657;28;20914;-58
2021/09/07 07:27:46;;;;;;;30.03;22.03;;;;;;;;;;5093830;28;20486;-58
2021/09/07 07:30:13;;;;;;;31.20;21.70;;;;;;;;;;5093944;28;20454;-57
2021/09/07 07:32:40;;;;;;;31.40;21.80;;;;;;;;;;5093934;28;20446;-57
2021/09/07 07:35:09;;;;;;;27.87;21.93;;;;;;;;;;5093648;28;20442;-57
2021/09/07 07:37:37;;;;;;;31.70;22.70;;;;;;;;;;5093533;28;20470;-59
2021/09/07 07:40:04;;;;;;;24.70;21.00;;;;;;;;;;5093792;28;20442;-58
2021/09/07 07:42:32;;;;;;;28.43;20.60;;;;;;;;;;5093389;28;20446;-58
2021/09/07 07:44:59;;;;;;;25.57;20.47;;;;;;;;;;5094689;28;20449;-57
2021/09/07 07:47:26;;;;;;;29.83;21.73;;;;;;;;;;5093577;28;20500;-57
2021/09/07 07:49:53;;;;;;;27.67;21.10;;;;;;;;;;5093521;28;20451;-58
2021/09/07 07:52:22;;;;;;;26.97;22.20;;;;;;;;;;5093758;28;20450;-56
2021/09/07 07:54:50;;;;;;;23.83;20.47;;;;;;;;;;5093612;28;20446;-58
2021/09/07 07:57:18;;;;;;;24.33;20.03;;;;;;;;;;5092951;28;20530;-58
2021/09/07 07:59:45;;;;;;;25.53;18.00;;;;;;;;;;5093369;28;20866;-58
2021/09/07 08:02:12;;;;;;;25.10;19.17;;;;;;;;;;5092938;28;20498;-59
2021/09/07 08:04:40;;;;;;;22.00;19.43;;;;;;;;;;5093393;28;20814;-57
2021/09/07 08:07:07;;;;;;;25.07;19.00;;;;;;;;;;5092806;28;20497;-57
2021/09/07 08:09:36;;;;;;;22.10;18.10;;;;;;;;;;5093073;28;20531;-57
2021/09/07 08:12:03;;;;;;;29.67;18.50;;;;;;;;;;5093044;28;20446;-57
2021/09/07 08:14:30;;;;;;;23.47;19.20;;;;;;;;;;5093190;28;20446;-57
2021/09/07 08:16:57;;;;;;;23.67;18.60;;;;;;;;;;5093178;28;20522;-57
2021/09/07 08:19:25;;;;;;;24.10;17.10;;;;;;;;;;5093314;28;20812;-57
2021/09/07 08:21:52;;;;;;;21.87;15.73;;;;;;;;;;5067585;22;21082;-57
2021/09/07 08:24:19;;;;;;;20.53;15.93;;;;;;;;;;5032897;28;20794;-58
2021/09/07 08:26:48;;;;;;;21.00;15.97;;;;;;;;;;5032983;28;20865;-60
2021/09/07 08:29:15;;;;;;;19.63;14.80;;;;;;;;;;5032962;28;20535;-58
2021/09/07 08:31:42;;;;;;;21.13;15.60;;;;;;;;;;5033080;28;20461;-59
2021/09/07 08:34:09;;;;;;;20.67;16.17;;;;;;;;;;5033695;28;20499;-59
2021/09/07 08:36:37;;;;;;;18.97;14.50;;;;;;;;;;5033002;28;20499;-59
2021/09/07 08:39:05;;;;;;;17.33;14.23;;;;;;;;;;5032850;28;20941;-59
2021/09/07 08:41:32;;;;;;;18.90;14.30;;;;;;;;;;5033423;28;20473;-59
2021/09/07 08:44:01;;;;;;;19.40;13.03;;;;;;;;;;5032924;28;20449;-59
2021/09/07 08:46:28;;;;;;;17.37;13.00;;;;;;;;;;5032899;28;21008;-59
2021/09/07 08:48:55;;;;;;;15.50;10.57;;;;;;;;;;5033382;28;20485;-59
2021/09/07 08:51:23;;;;;;;15.90;13.00;;;;;;;;;;5033033;28;20817;-59
2021/09/07 08:53:52;;;;;;;17.83;11.60;;;;;;;;;;5034195;28;20503;-60
2021/09/07 08:56:19;;;;;;;13.40;10.50;;;;;;;;;;5036445;28;20499;-59
2021/09/07 08:58:47;;;;;;;18.23;11.93;;;;;;;;;;5036446;28;20507;-59
2021/09/07 09:01:16;;;;;;;12.73;11.37;;;;;;;;;;5036188;28;20461;-58
2021/09/07 09:03:44;;;;;;;15.70;12.30;;;;;;;;;;5036489;28;20475;-58
2021/09/07 09:06:11;;;;;;;17.70;12.17;;;;;;;;;;5036544;28;20444;-59
2021/09/07 09:08:41;;;;;;;13.63;10.93;;;;;;;;;;5036902;28;20477;-59
2021/09/07 09:11:09;;;;;;;13.77;11.17;;;;;;;;;;5036589;28;20523;-59
2021/09/07 09:13:43;;;;;;;14.87;9.63;;;;;;;;;;5037719;28;20449;-58
2021/09/07 09:16:11;;;;;;;12.10;9.10;;;;;;;;;;5037884;28;20503;-59
2021/09/07 09:18:41;;;;;;;10.70;8.77;;;;;;;;;;5036135;28;20933;-58
2021/09/07 09:21:24;;;;;;;10.97;7.63;;;;;;;;;;5037211;28;20536;-59
2021/09/07 09:24:10;;;;;;;11.20;8.67;;;;;;;;;;5036394;28;20505;-60
2021/09/07 09:26:50;;;;;;;10.40;8.40;;;;;;;;;;5035914;28;20505;-60
2021/09/07 09:29:20;;;;;;;9.53;8.00;;;;;;;;;;5037832;28;20571;-59
2021/09/07 09:31:51;;;;;;;11.17;7.50;;;;;;;;;;5035997;28;20466;-58
2021/09/07 09:34:19;;;;;;;9.80;7.23;;;;;;;;;;5036423;28;21007;-58
2021/09/07 09:36:57;;;;;;;10.63;7.80;;;;;;;;;;5036393;28;20488;-59
2021/09/07 09:39:42;;;;;;;10.87;7.97;;;;;;;;;;5036625;28;20470;-59
2021/09/07 09:42:10;;;;;;;9.93;7.07;;;;;;;;;;5035513;28;20572;-59
2021/09/07 09:44:37;;;;;;;10.87;8.27;;;;;;;;;;5035541;28;20505;-60
2021/09/07 09:47:04;;;;;;;10.80;8.53;;;;;;;;;;5035556;28;20496;-60
2021/09/07 09:49:33;;;;;;;8.70;7.50;;;;;;;;;;5035544;28;20474;-59
2021/09/07 09:52:02;;;;;;;11.50;8.27;;;;;;;;;;5035620;28;20471;-60
2021/09/07 09:54:30;;;;;;;11.27;7.83;;;;;;;;;;5035156;28;20538;-60
2021/09/07 09:56:58;;;;;;;8.90;6.70;;;;;;;;;;5035000;28;20513;-59
2021/09/07 09:59:27;;;;;;;7.53;6.63;;;;;;;;;;5035200;28;20443;-59
2021/09/07 10:01:54;;;;;;;19.20;6.10;;;;;;;;;;5034891;28;20885;-59
2021/09/07 10:04:23;;;;;;;6.67;5.60;;;;;;;;;;5034674;28;20460;-59
2021/09/07 10:06:52;;;;;;;11.10;8.10;;;;;;;;;;5035106;28;20800;-58
2021/09/07 10:09:20;;;;;;;10.80;7.30;;;;;;;;;;5035012;28;20512;-58
2021/09/07 10:11:49;;;;;;;11.53;8.23;;;;;;;;;;5034916;28;20980;-60
2021/09/07 10:14:18;;;;;;;10.43;6.70;;;;;;;;;;5035123;28;20511;-60
2021/09/07 10:16:52;;;;;;;6.67;5.90;;;;;;;;;;5035255;28;20945;-60
2021/09/07 10:19:37;;;;;;;15.07;6.90;;;;;;;;;;5035039;28;20949;-59
2021/09/07 10:24:51;;;;;;;8.77;6.40;;;;;;;;;;5035321;28;20399;-59
2021/09/07 10:27:19;;;;;;;9.00;6.63;;;;;;;;;;5035506;28;20448;-59
2021/09/07 10:29:46;;;;;;;20.63;7.50;;;;;;;;;;5034609;28;20483;-59
2021/09/07 10:32:40;;;;;;;10.50;7.00;;;;;;;;;;5035602;28;20792;-60
2021/09/07 10:35:08;;;;;;;10.80;7.50;;;;;;;;;;4989485;28;20463;-59
2021/09/07 10:37:54;;;;;;;9.20;6.80;;;;;;;;;;5035704;28;20501;-59
2021/09/07 10:40:39;;;;;;;12.23;7.60;;;;;;;;;;5034138;28;20495;-58
2021/09/07 10:43:08;;;;;;;10.27;7.07;;;;;;;;;;5035217;28;20475;-60
2021/09/07 10:45:37;;;;;;;8.67;6.97;;;;;;;;;;5034406;28;20936;-61
2021/09/07 10:48:19;;;;;;;10.20;8.50;;;;;;;;;;5034867;28;20448;-59
2021/09/07 10:50:59;;;;;;;10.30;7.30;;;;;;;;;;5034955;28;20981;-60
2021/09/07 10:53:26;;;;;;;10.13;7.63;;;;;;;;;;5034878;28;20477;-59
2021/09/07 10:55:53;;;;;;;7.90;6.40;;;;;;;;;;5034165;28;20591;-59
2021/09/07 10:58:34;;;;;;;8.50;6.43;;;;;;;;;;5033541;28;20539;-59
2021/09/07 11:01:20;;;;;;;8.70;7.03;;;;;;;;;;5034223;28;20524;-60
2021/09/07 11:03:47;;;;;;;10.23;6.40;;;;;;;;;;5034188;28;20437;-59
2021/09/07 11:06:30;;;;;;;8.93;7.30;;;;;;;;;;5033624;28;20465;-59
2021/09/07 11:08:57;;;;;;;10.00;7.23;;;;;;;;;;5033660;28;20487;-60
2021/09/07 11:11:26;;;;;;;10.43;7.90;;;;;;;;;;5034466;28;20469;-59
2021/09/07 11:14:07;;;;;;;11.27;7.20;;;;;;;;;;5033907;28;20453;-60
2021/09/07 11:16:35;;;;;;;10.00;7.80;;;;;;;;;;5033281;28;20439;-59
2021/09/07 11:19:02;;;;;;;8.70;7.47;;;;;;;;;;5034237;28;20494;-59
2021/09/07 11:21:30;;;;;;;14.00;8.33;;;;;;;;;;5033475;28;20910;-60
2021/09/07 11:24:00;;;;;;;10.03;7.77;;;;;;;;;;5034146;28;20550;-60
2021/09/07 11:26:28;;;;;;;11.17;8.53;;;;;;;;;;5033701;28;20535;-59
2021/09/07 11:28:57;;;;;;;10.80;8.13;;;;;;;;;;5033590;28;20486;-59
2021/09/07 11:31:25;;;;;;;8.70;7.80;;;;;;;;;;5033413;28;20464;-59
2021/09/07 11:33:53;;;;;;;8.97;6.07;;;;;;;;;;5033614;28;20442;-59
2021/09/07 11:36:21;;;;;;;10.37;6.70;;;;;;;;;;5033497;28;20513;-59
2021/09/07 11:38:49;;;;;;;9.40;7.37;;;;;;;;;;5033191;28;20497;-60
2021/09/07 11:41:17;;;;;;;9.47;7.80;;;;;;;;;;5033698;28;20466;-60
2021/09/07 11:43:45;;;;;;;8.67;6.57;;;;;;;;;;5033911;28;20456;-57
2021/09/07 11:46:14;;;;;;;7.63;6.57;;;;;;;;;;5033841;28;20447;-59
2021/09/07 11:48:43;;;;;;;10.40;6.90;;;;;;;;;;5033673;28;20451;-60
2021/09/07 11:51:11;;;;;;;9.27;6.90;;;;;;;;;;5033506;28;20482;-59
2021/09/07 11:53:38;;;;;;;13.83;6.63;;;;;;;;;;5033370;28;20459;-60
2021/09/07 11:56:05;;;;;;;8.10;6.90;;;;;;;;;;5033493;28;20463;-59
2021/09/07 11:58:37;;;;;;;10.80;7.00;;;;;;;;;;5033046;28;20457;-60
2021/09/07 12:01:16;;;;;;;6.57;5.53;;;;;;;;;;5032934;28;20467;-60
2021/09/07 12:03:48;;;;;;;9.20;6.80;;;;;;;;;;5033085;28;20497;-60
2021/09/07 12:06:16;;;;;;;7.73;6.37;;;;;;;;;;5032759;28;20448;-60
2021/09/07 12:08:45;;;;;;;6.53;5.50;;;;;;;;;;5032725;28;20456;-60
2021/09/07 12:11:14;;;;;;;8.13;5.33;;;;;;;;;;5033150;28;20472;-60
2021/09/07 12:13:41;;;;;;;6.37;5.37;;;;;;;;;;5033125;28;20460;-60
2021/09/07 12:16:09;;;;;;;6.60;5.17;;;;;;;;;;5033137;28;20867;-60
2021/09/07 12:18:39;;;;;;;11.17;5.70;;;;;;;;;;5033063;28;20521;-60
2021/09/07 12:21:07;;;;;;;8.30;5.40;;;;;;;;;;5032777;28;20532;-59
2021/09/07 12:23:35;;;;;;;5.77;4.90;;;;;;;;;;5033298;28;20523;-60
2021/09/07 12:26:02;;;;;;;5.60;5.10;;;;;;;;;;5033125;28;20444;-60
2021/09/07 12:28:30;;;;;;;5.70;5.10;;;;;;;;;;5033834;28;20445;-60
2021/09/07 12:31:10;;;;;;;5.73;5.20;;;;;;;;;;5037348;28;20540;-60
2021/09/07 12:33:42;;;;;;;6.07;4.30;;;;;;;;;;5036796;28;20981;-60
2021/09/07 12:36:10;;;;;;;6.30;4.90;;;;;;;;;;5037205;28;20432;-60
2021/09/07 12:38:37;;;;;;;5.40;4.90;;;;;;;;;;5036802;28;20905;-59
2021/09/07 12:41:06;;;;;;;6.50;4.77;;;;;;;;;;5037024;28;20460;-59
2021/09/07 12:43:35;;;;;;;9.23;7.67;;;;;;;;;;5036706;28;20454;-60
2021/09/07 12:46:03;;;;;;;6.23;4.90;;;;;;;;;;5036716;28;20502;-59
2021/09/07 12:48:31;;;;;;;7.10;5.70;;;;;;;;;;5036806;28;20834;-59
2021/09/07 12:51:01;;;;;;;5.43;4.50;;;;;;;;;;5036371;28;20551;-60
2021/09/07 12:53:30;;;;;;;5.90;4.00;;;;;;;;;;5036968;28;20489;-59
2021/09/07 12:55:57;;;;;;;5.00;4.50;;;;;;;;;;5036891;28;20453;-60
2021/09/07 12:58:24;;;;;;;4.60;3.80;;;;;;;;;;5036611;28;20450;-60
2021/09/07 13:00:52;;;;;;;4.53;4.10;;;;;;;;;;5036338;28;20579;-60
2021/09/07 13:03:19;;;;;;;5.63;4.90;;;;;;;;;;5036422;28;21200;-60
2021/09/07 13:05:46;;;;;;;6.33;5.70;;;;;;;;;;5037036;28;20446;-61
2021/09/07 13:08:15;;;;;;;6.53;4.63;;;;;;;;;;5038557;28;20450;-60
2021/09/07 13:10:42;;;;;;;6.17;5.57;;;;;;;;;;5036924;28;20540;-61
2021/09/07 13:13:09;;;;;;;6.30;5.70;;;;;;;;;;5035378;28;20472;-60
2021/09/07 13:15:37;;;;;;;6.25;5.65;;;;;;;;;;5035097;28;20411;-59
2021/09/07 13:18:04;;;;;;;6.73;5.80;;;;;;;;;;5035953;28;20272;-60
2021/09/07 13:20:31;;;;;;;6.57;5.90;;;;;;;;;;5035237;28;20949;-58
2021/09/07 13:22:59;;;;;;;6.77;4.97;;;;;;;;;;5035438;28;20430;-59
2021/09/07 13:25:27;;;;;;;5.83;5.23;;;;;;;;;;5036132;28;20454;-60
2021/09/07 13:27:55;;;;;;;7.13;5.50;;;;;;;;;;5036921;28;20792;-60
2021/09/07 13:30:22;;;;;;;6.33;5.40;;;;;;;;;;5036332;28;20900;-59
2021/09/07 13:32:49;;;;;;;7.73;5.50;;;;;;;;;;5036461;28;21057;-60
2021/09/07 13:35:16;;;;;;;7.30;4.50;;;;;;;;;;5035682;28;20448;-60
2021/09/07 13:37:44;;;;;;;6.23;5.63;;;;;;;;;;5036115;28;20509;-60
2021/09/07 13:40:11;;;;;;;8.43;5.77;;;;;;;;;;5034851;28;20524;-58
2021/09/07 13:42:40;;;;;;;7.30;5.30;;;;;;;;;;5035102;28;20480;-60
2021/09/07 13:45:07;;;;;;;7.60;5.70;;;;;;;;;;5035219;28;20483;-60
2021/09/07 13:47:35;;;;;;;6.90;4.97;;;;;;;;;;5035757;28;20815;-60
2021/09/07 13:50:02;;;;;;;13.53;6.00;;;;;;;;;;5035426;28;20559;-60
2021/09/07 13:52:29;;;;;;;5.27;4.50;;;;;;;;;;5035354;28;20472;-60
2021/09/07 13:54:56;;;;;;;5.30;4.80;;;;;;;;;;5035756;28;20449;-65
2021/09/07 13:57:24;;;;;;;5.80;5.20;;;;;;;;;;5035625;28;20500;-61
2021/09/07 13:59:53;;;;;;;7.17;5.30;;;;;;;;;;5035471;28;20860;-60
2021/09/07 14:02:20;;;;;;;5.33;4.83;;;;;;;;;;5034909;28;20911;-59
2021/09/07 14:04:47;;;;;;;5.83;5.23;;;;;;;;;;5035412;28;20460;-59
2021/09/07 14:07:14;;;;;;;6.50;5.63;;;;;;;;;;5035360;28;20860;-59
2021/09/07 14:09:42;;;;;;;8.13;5.40;;;;;;;;;;5034759;28;20531;-59
2021/09/07 14:12:09;;;;;;;7.17;6.13;;;;;;;;;;5035097;28;20524;-58
2021/09/07 14:14:37;;;;;;;6.60;4.90;;;;;;;;;;5035197;28;20448;-61
2021/09/07 14:17:06;;;;;;;7.33;5.00;;;;;;;;;;5034923;28;20848;-60
2021/09/07 14:19:33;;;;;;;7.33;5.40;;;;;;;;;;5035060;28;20494;-60
2021/09/07 14:22:00;;;;;;;6.10;5.20;;;;;;;;;;5059014;22;20507;-57
2021/09/07 14:24:27;;;;;;;5.47;4.80;;;;;;;;;;5035435;28;20454;-55
2021/09/07 14:26:55;;;;;;;5.40;4.50;;;;;;;;;;5034886;28;20498;-56
2021/09/07 14:29:22;;;;;;;5.43;4.57;;;;;;;;;;5034769;28;20546;-57
2021/09/07 14:31:49;;;;;;;6.37;4.90;;;;;;;;;;5034351;28;20465;-55
2021/09/07 14:34:18;;;;;;;6.53;5.93;;;;;;;;;;5034579;28;20444;-57
2021/09/07 14:36:45;;;;;;;7.87;5.23;;;;;;;;;;5034361;28;20510;-57
2021/09/07 14:39:13;;;;;;;5.43;5.00;;;;;;;;;;5034501;28;20524;-56
2021/09/07 14:41:40;;;;;;;4.53;4.13;;;;;;;;;;5034300;28;20469;-56
2021/09/07 14:44:07;;;;;;;6.07;4.63;;;;;;;;;;5034007;28;20488;-56